Saturday, November 17, 2018, 6:42 AM GMT
Back to Local

CYUL, Montreal / Pierre Elliot Trudeau International Airport, Que

Location: , , Canada Lat: 45.467
Local Time: 6:42 AM GMT ( 6:42 GMT) Lon: -73.75
Time Zone: GMT Elev: 101 ft

Show me the last for .
Show Coded

Time T Td Feel RH Dir Speed Gust Alt SLP Vis Weather Sky Remarks
2018-11-17 06:00 28 27 16 92 250° 10 18 29.76 29.77 8 -SN FEW010 FEW025 OVC075 None
2018-11-17 05:35 28 25 21 86 260° 7 - 29.75 29.76 8 -SN FEW010 SCT028 OVC088 None
2018-11-17 05:00 27 25 17 92 270° 9 - 29.74 29.75 8 FEW010 SCT032 BKN095 None
2018-11-17 04:00 25 23 - 92 270° 2 - 29.73 29.74 6 BR BKN010 OVC019 None
2018-11-17 03:00 25 23 20 92 270° 3 - 29.70 29.71 6 BR BKN011 OVC022 None
2018-11-17 02:46 25 23 - 92 Variable 2 - 29.70 29.71 60 BR OVC013 None
2018-11-17 02:30 25 23 - 92 340° 2 - 29.70 29.70 6 -SN FEW008 OVC014 None
2018-11-17 02:00 25 23 20 92 300° 3 - 29.69 29.70 6 -SN FEW008 OVC018 None
2018-11-17 01:12 25 23 - 92 310° 2 - 29.68 29.69 3 -SN SCT007 BKN015 OVC025 None
2018-11-17 01:00 25 23 - 92 320° 2 - 29.68 29.69 2 -SN SCT006 BKN011 OVC025 None
2018-11-17 00:00 25 23 19 92 340° 5 - 29.68 29.68 2 -SN SCT008 BKN013 OVC030 None
2018-11-16 23:40 25 23 19 92 340° 5 - 29.67 29.68 3 -SN SCT007 BKN013 OVC030 None
2018-11-16 23:22 25 23 20 92 350° 3 - 29.67 29.67 2 -SN OVC005 None
2018-11-16 23:15 25 23 20 92 330° 3 - 29.67 29.67 2 -SN SCT007 OVC012 None
2018-11-16 23:00 25 23 19 92 360° 5 - 29.66 29.67 1 -SN BKN009 OVC022 None
2018-11-16 22:16 27 23 23 86 340° 3 - 29.66 29.67 2 -SN BKN008 OVC018 None
2018-11-16 22:00 27 23 23 86 350° 3 - 29.66 29.67 3 -SN FEW008 BKN016 OVC035 None
2018-11-16 21:44 25 23 17 92 30° 7 - 29.66 29.67 4 -SN FEW009 BKN018 OVC030 None
2018-11-16 21:23 25 23 17 92 30° 7 - 29.65 29.66 2 -SN SCT009 OVC015 None
2018-11-16 21:00 27 23 20 86 350° 6 - 29.66 29.67 1 -SN BKN007 OVC024 None
2018-11-16 20:41 27 23 20 86 20° 6 - 29.66 29.67 1 -SN BKN008 OVC020 None
2018-11-16 20:11 27 23 19 86 20° 7 - 29.66 29.67 1 -SN SCT009 OVC013 None
2018-11-16 20:00 25 23 16 92 20° 8 - 29.65 29.66 2 -SN SCT008 BKN017 OVC035 None
2018-11-16 19:49 25 23 15 92 20° 9 - 29.65 29.66 1 -SN BKN008 OVC020 None
2018-11-16 19:26 27 25 19 92 20° 7 - 29.66 29.67 1 -SN OVC007 None
2018-11-16 19:00 27 23 18 86 30° 8 - 29.66 29.67 1 -SN OVC007 None
2018-11-16 18:38 27 23 16 86 50° 12 - 29.66 29.67 2 -SN SCT006 OVC009 None
2018-11-16 18:30 27 23 16 86 40° 12 - 29.66 29.67 3 -SN BKN006 OVC012 None
2018-11-16 18:00 27 23 17 86 40° 10 - 29.67 29.68 8 -SN SCT007 OVC011 None
2018-11-16 17:00 27 23 15 86 40° 14 - 29.70 29.71 8 -SN SCT007 OVC012 None
2018-11-16 16:00 27 23 16 86 30° 12 - 29.73 29.74 6 -SN FEW008 BKN014 OVC030 None
2018-11-16 15:36 27 23 16 86 50° 12 - 29.74 29.75 4 -SN SCT008 OVC030 None
2018-11-16 15:00 27 23 16 86 40° 12 - 29.75 29.76 2 -SN BKN009 OVC025 None
2018-11-16 14:00 25 23 15 92 40° 10 - 29.78 29.79 3 -SN BKN014 OVC020 None
2018-11-16 13:45 25 23 15 92 50° 10 - 29.78 29.79 2 -SN BKN012 OVC025 None
2018-11-16 13:00 25 21 15 85 50° 9 - 29.81 29.82 3 -SN FEW009 BKN015 OVC045 None
2018-11-16 12:00 25 23 15 92 40° 9 - 29.84 29.85 2 -SN SCT008 OVC014 None
2018-11-16 11:43 25 23 16 92 30° 8 - 29.85 29.86 2 -SN BKN009 BKN014 OVC018 None
2018-11-16 11:30 25 23 16 92 40° 8 - 29.86 29.87 3 -SN FEW006 BKN014 OVC018 None
2018-11-16 11:10 25 23 16 92 40° 8 - 29.87 29.88 4 -SN SCT006 BKN017 OVC025 None
2018-11-16 11:00 25 23 14 92 60° 12 - 29.88 29.89 3 -SN BKN015 OVC025 None
2018-11-16 10:38 25 23 14 92 50° 12 - 29.89 29.90 2 -SN BKN016 OVC030 Pressure falling rapidly
2018-11-16 10:27 25 23 15 92 80° 9 - 29.90 29.91 1 -SN VV009 None
2018-11-16 10:00 25 23 14 92 80° 12 - 29.91 29.92 1 -SN VV005 None
2018-11-16 09:26 25 23 15 92 70° 9 - 29.93 29.94 1 -SN VV006 None
2018-11-16 09:00 25 23 17 92 80° 7 - 29.94 29.95 0 -SN VV004 None
2018-11-16 08:46 25 21 15 85 70° 9 - 29.94 29.96 1 -SN VV006 None
2018-11-16 08:00 25 21 14 85 80° 12 - 29.98 29.99 1 -SN VV007 None
2018-11-16 07:33 23 19 15 85 50° 7 - 30.00 30.01 1 -SN VV009 Pressure falling rapidly
2018-11-16 07:18 23 18 14 79 30° 8 - 30.01 30.02 3 -SN VV011 None
2018-11-16 07:00 25 18 16 73 40° 8 - 30.02 30.03 6 -SN OVC017 None

Support USWX by starting your Amazon purchase here.